sensor_id;sensor_type;location;lat;lon;timestamp;P1;durP1;ratioP1;P2;durP2;ratioP2
45792;SDS011;31495;42.740;22.908;2023-06-26T00:00:40;24.40;;;15.48;;
45792;SDS011;31495;42.740;22.908;2023-06-26T00:01:39;24.88;;;16.90;;
45792;SDS011;31495;42.740;22.908;2023-06-26T00:02:39;22.02;;;15.05;;
45792;SDS011;31495;42.740;22.908;2023-06-26T00:03:39;21.92;;;15.32;;
45792;SDS011;31495;42.740;22.908;2023-06-26T00:04:38;24.63;;;15.13;;
45792;SDS011;31495;42.740;22.908;2023-06-26T00:05:38;22.40;;;14.55;;
45792;SDS011;31495;42.740;22.908;2023-06-26T00:06:37;23.80;;;14.73;;
45792;SDS011;31495;42.740;22.908;2023-06-26T00:07:37;23.10;;;15.32;;
45792;SDS011;31495;42.740;22.908;2023-06-26T00:08:36;26.88;;;16.77;;
45792;SDS011;31495;42.740;22.908;2023-06-26T00:09:36;24.02;;;16.42;;
45792;SDS011;31495;42.740;22.908;2023-06-26T00:10:36;22.13;;;16.23;;
45792;SDS011;31495;42.740;22.908;2023-06-26T00:11:35;23.67;;;15.88;;
45792;SDS011;31495;42.740;22.908;2023-06-26T00:12:34;22.70;;;15.23;;
45792;SDS011;31495;42.740;22.908;2023-06-26T00:13:34;22.20;;;15.63;;
45792;SDS011;31495;42.740;22.908;2023-06-26T00:14:33;22.23;;;15.50;;
45792;SDS011;31495;42.740;22.908;2023-06-26T00:15:33;24.60;;;15.80;;
45792;SDS011;31495;42.740;22.908;2023-06-26T00:16:33;22.15;;;14.95;;
45792;SDS011;31495;42.740;22.908;2023-06-26T00:17:32;25.90;;;16.50;;
45792;SDS011;31495;42.740;22.908;2023-06-26T00:18:36;22.58;;;15.93;;
45792;SDS011;31495;42.740;22.908;2023-06-26T00:19:36;23.42;;;16.55;;
45792;SDS011;31495;42.740;22.908;2023-06-26T00:20:35;20.77;;;14.60;;
45792;SDS011;31495;42.740;22.908;2023-06-26T00:21:34;21.13;;;14.93;;
45792;SDS011;31495;42.740;22.908;2023-06-26T00:22:34;27.83;;;15.65;;
45792;SDS011;31495;42.740;22.908;2023-06-26T00:23:33;20.98;;;15.43;;
45792;SDS011;31495;42.740;22.908;2023-06-26T00:24:36;22.15;;;15.30;;
45792;SDS011;31495;42.740;22.908;2023-06-26T00:25:35;23.42;;;13.85;;
45792;SDS011;31495;42.740;22.908;2023-06-26T00:26:35;19.63;;;14.63;;
45792;SDS011;31495;42.740;22.908;2023-06-26T00:27:34;20.52;;;14.82;;
45792;SDS011;31495;42.740;22.908;2023-06-26T00:28:34;22.95;;;14.23;;
45792;SDS011;31495;42.740;22.908;2023-06-26T00:29:33;19.63;;;13.57;;
45792;SDS011;31495;42.740;22.908;2023-06-26T00:30:33;20.15;;;14.02;;
45792;SDS011;31495;42.740;22.908;2023-06-26T00:31:32;21.73;;;14.18;;
45792;SDS011;31495;42.740;22.908;2023-06-26T00:32:31;24.60;;;14.43;;
45792;SDS011;31495;42.740;22.908;2023-06-26T00:33:31;22.60;;;14.63;;
45792;SDS011;31495;42.740;22.908;2023-06-26T00:34:30;21.13;;;14.65;;
45792;SDS011;31495;42.740;22.908;2023-06-26T00:35:30;21.48;;;13.90;;
45792;SDS011;31495;42.740;22.908;2023-06-26T00:36:29;18.70;;;13.13;;
45792;SDS011;31495;42.740;22.908;2023-06-26T00:37:29;21.23;;;13.75;;
45792;SDS011;31495;42.740;22.908;2023-06-26T00:38:28;21.38;;;13.43;;
45792;SDS011;31495;42.740;22.908;2023-06-26T00:39:27;19.30;;;13.43;;
45792;SDS011;31495;42.740;22.908;2023-06-26T00:40:27;21.40;;;13.18;;
45792;SDS011;31495;42.740;22.908;2023-06-26T00:41:26;19.40;;;13.48;;
45792;SDS011;31495;42.740;22.908;2023-06-26T00:42:26;19.98;;;14.13;;
45792;SDS011;31495;42.740;22.908;2023-06-26T00:43:25;17.45;;;12.68;;
45792;SDS011;31495;42.740;22.908;2023-06-26T00:44:25;18.15;;;13.30;;
45792;SDS011;31495;42.740;22.908;2023-06-26T00:45:24;19.10;;;14.05;;
45792;SDS011;31495;42.740;22.908;2023-06-26T00:46:24;20.40;;;13.05;;
45792;SDS011;31495;42.740;22.908;2023-06-26T00:47:24;16.90;;;12.85;;
45792;SDS011;31495;42.740;22.908;2023-06-26T00:48:24;18.63;;;12.43;;
45792;SDS011;31495;42.740;22.908;2023-06-26T00:49:24;19.88;;;13.27;;
45792;SDS011;31495;42.740;22.908;2023-06-26T00:50:23;20.30;;;13.98;;
45792;SDS011;31495;42.740;22.908;2023-06-26T00:51:23;24.75;;;13.45;;
45792;SDS011;31495;42.740;22.908;2023-06-26T00:52:22;20.95;;;13.27;;
45792;SDS011;31495;42.740;22.908;2023-06-26T00:53:22;22.83;;;13.70;;
45792;SDS011;31495;42.740;22.908;2023-06-26T00:54:22;19.67;;;12.93;;
45792;SDS011;31495;42.740;22.908;2023-06-26T00:55:22;19.38;;;13.27;;
45792;SDS011;31495;42.740;22.908;2023-06-26T00:56:22;18.05;;;13.43;;
45792;SDS011;31495;42.740;22.908;2023-06-26T00:57:22;16.13;;;12.60;;
45792;SDS011;31495;42.740;22.908;2023-06-26T00:58:22;16.90;;;12.52;;
45792;SDS011;31495;42.740;22.908;2023-06-26T00:59:23;16.88;;;12.55;;
45792;SDS011;31495;42.740;22.908;2023-06-26T01:00:22;20.95;;;14.02;;
45792;SDS011;31495;42.740;22.908;2023-06-26T01:01:22;16.50;;;12.10;;
45792;SDS011;31495;42.740;22.908;2023-06-26T01:02:24;19.95;;;12.82;;
45792;SDS011;31495;42.740;22.908;2023-06-26T01:03:26;17.88;;;12.98;;
45792;SDS011;31495;42.740;22.908;2023-06-26T01:04:26;21.65;;;14.10;;
45792;SDS011;31495;42.740;22.908;2023-06-26T01:05:31;21.42;;;13.07;;
45792;SDS011;31495;42.740;22.908;2023-06-26T01:06:31;17.25;;;12.48;;
45792;SDS011;31495;42.740;22.908;2023-06-26T01:07:35;20.25;;;13.10;;
45792;SDS011;31495;42.740;22.908;2023-06-26T01:08:36;17.00;;;12.13;;
45792;SDS011;31495;42.740;22.908;2023-06-26T01:09:37;17.75;;;11.95;;
45792;SDS011;31495;42.740;22.908;2023-06-26T01:10:36;20.00;;;12.45;;
45792;SDS011;31495;42.740;22.908;2023-06-26T01:11:36;20.30;;;11.80;;
45792;SDS011;31495;42.740;22.908;2023-06-26T01:12:35;23.00;;;12.98;;
45792;SDS011;31495;42.740;22.908;2023-06-26T01:13:38;21.05;;;12.43;;
45792;SDS011;31495;42.740;22.908;2023-06-26T01:14:38;16.67;;;12.23;;
45792;SDS011;31495;42.740;22.908;2023-06-26T01:15:38;23.60;;;13.88;;
45792;SDS011;31495;42.740;22.908;2023-06-26T01:16:39;23.13;;;14.10;;
45792;SDS011;31495;42.740;22.908;2023-06-26T01:17:41;19.88;;;13.48;;
45792;SDS011;31495;42.740;22.908;2023-06-26T01:18:44;20.08;;;13.27;;
45792;SDS011;31495;42.740;22.908;2023-06-26T01:19:44;21.02;;;12.80;;
45792;SDS011;31495;42.740;22.908;2023-06-26T01:20:44;23.60;;;13.68;;
45792;SDS011;31495;42.740;22.908;2023-06-26T01:21:44;17.67;;;12.95;;
45792;SDS011;31495;42.740;22.908;2023-06-26T01:24:23;18.90;;;13.02;;
45792;SDS011;31495;42.740;22.908;2023-06-26T01:25:35;21.98;;;13.15;;
45792;SDS011;31495;42.740;22.908;2023-06-26T01:26:59;21.27;;;12.93;;
45792;SDS011;31495;42.740;22.908;2023-06-26T01:28:02;18.80;;;12.70;;
45792;SDS011;31495;42.740;22.908;2023-06-26T01:29:02;21.00;;;13.00;;
45792;SDS011;31495;42.740;22.908;2023-06-26T01:30:04;22.38;;;14.32;;
45792;SDS011;31495;42.740;22.908;2023-06-26T01:31:07;19.88;;;14.10;;
45792;SDS011;31495;42.740;22.908;2023-06-26T01:32:07;18.30;;;13.38;;
45792;SDS011;31495;42.740;22.908;2023-06-26T01:33:07;19.83;;;13.32;;
45792;SDS011;31495;42.740;22.908;2023-06-26T01:34:07;21.77;;;14.82;;
45792;SDS011;31495;42.740;22.908;2023-06-26T01:35:06;17.55;;;12.77;;
45792;SDS011;31495;42.740;22.908;2023-06-26T01:36:07;18.20;;;13.02;;
45792;SDS011;31495;42.740;22.908;2023-06-26T01:37:07;19.38;;;13.77;;
45792;SDS011;31495;42.740;22.908;2023-06-26T01:38:13;19.75;;;14.43;;
45792;SDS011;31495;42.740;22.908;2023-06-26T01:39:14;21.60;;;14.10;;
45792;SDS011;31495;42.740;22.908;2023-06-26T01:40:15;22.45;;;13.95;;
45792;SDS011;31495;42.740;22.908;2023-06-26T01:41:14;23.83;;;13.50;;
45792;SDS011;31495;42.740;22.908;2023-06-26T01:42:14;16.75;;;12.60;;
45792;SDS011;31495;42.740;22.908;2023-06-26T01:43:15;18.63;;;13.77;;
45792;SDS011;31495;42.740;22.908;2023-06-26T01:44:23;18.48;;;13.02;;
45792;SDS011;31495;42.740;22.908;2023-06-26T01:45:28;21.02;;;13.75;;
45792;SDS011;31495;42.740;22.908;2023-06-26T01:47:44;19.38;;;13.65;;
45792;SDS011;31495;42.740;22.908;2023-06-26T01:50:23;21.40;;;14.02;;
45792;SDS011;31495;42.740;22.908;2023-06-26T01:51:30;19.52;;;12.88;;
45792;SDS011;31495;42.740;22.908;2023-06-26T01:52:39;18.20;;;13.07;;
45792;SDS011;31495;42.740;22.908;2023-06-26T01:53:41;18.23;;;13.43;;
45792;SDS011;31495;42.740;22.908;2023-06-26T01:56:19;19.75;;;12.80;;
45792;SDS011;31495;42.740;22.908;2023-06-26T01:57:21;17.70;;;12.50;;
45792;SDS011;31495;42.740;22.908;2023-06-26T01:58:22;21.57;;;13.50;;
45792;SDS011;31495;42.740;22.908;2023-06-26T01:59:24;20.30;;;14.27;;
45792;SDS011;31495;42.740;22.908;2023-06-26T02:00:27;17.75;;;13.88;;
45792;SDS011;31495;42.740;22.908;2023-06-26T02:01:28;17.83;;;12.82;;
45792;SDS011;31495;42.740;22.908;2023-06-26T02:02:30;20.67;;;12.82;;
45792;SDS011;31495;42.740;22.908;2023-06-26T02:03:29;21.83;;;13.27;;
45792;SDS011;31495;42.740;22.908;2023-06-26T02:04:29;18.67;;;13.32;;
45792;SDS011;31495;42.740;22.908;2023-06-26T02:05:29;20.10;;;13.57;;
45792;SDS011;31495;42.740;22.908;2023-06-26T02:06:30;17.35;;;12.70;;
45792;SDS011;31495;42.740;22.908;2023-06-26T02:07:29;24.67;;;13.98;;
45792;SDS011;31495;42.740;22.908;2023-06-26T02:08:29;20.75;;;14.02;;
45792;SDS011;31495;42.740;22.908;2023-06-26T02:09:28;22.00;;;13.40;;
45792;SDS011;31495;42.740;22.908;2023-06-26T02:10:28;26.88;;;14.00;;
45792;SDS011;31495;42.740;22.908;2023-06-26T02:11:27;21.05;;;14.15;;
45792;SDS011;31495;42.740;22.908;2023-06-26T02:12:27;23.90;;;13.40;;
45792;SDS011;31495;42.740;22.908;2023-06-26T02:13:26;22.38;;;13.70;;
45792;SDS011;31495;42.740;22.908;2023-06-26T02:14:26;19.55;;;13.35;;
45792;SDS011;31495;42.740;22.908;2023-06-26T02:15:25;20.30;;;14.00;;
45792;SDS011;31495;42.740;22.908;2023-06-26T02:16:24;17.33;;;13.10;;
45792;SDS011;31495;42.740;22.908;2023-06-26T02:17:24;20.23;;;13.35;;
45792;SDS011;31495;42.740;22.908;2023-06-26T02:18:23;17.75;;;13.77;;
45792;SDS011;31495;42.740;22.908;2023-06-26T02:19:23;22.15;;;13.85;;
45792;SDS011;31495;42.740;22.908;2023-06-26T02:20:24;19.95;;;13.05;;
45792;SDS011;31495;42.740;22.908;2023-06-26T02:21:23;19.50;;;14.52;;
45792;SDS011;31495;42.740;22.908;2023-06-26T02:22:23;19.63;;;12.93;;
45792;SDS011;31495;42.740;22.908;2023-06-26T02:23:23;22.92;;;13.43;;
45792;SDS011;31495;42.740;22.908;2023-06-26T02:24:22;20.90;;;14.35;;
45792;SDS011;31495;42.740;22.908;2023-06-26T02:25:23;17.70;;;13.40;;
45792;SDS011;31495;42.740;22.908;2023-06-26T02:26:22;20.30;;;14.18;;
45792;SDS011;31495;42.740;22.908;2023-06-26T02:27:21;20.90;;;15.63;;
45792;SDS011;31495;42.740;22.908;2023-06-26T02:28:21;17.88;;;14.25;;
45792;SDS011;31495;42.740;22.908;2023-06-26T02:29:20;17.98;;;14.35;;
45792;SDS011;31495;42.740;22.908;2023-06-26T02:30:20;17.83;;;13.85;;
45792;SDS011;31495;42.740;22.908;2023-06-26T02:31:19;22.48;;;15.38;;
45792;SDS011;31495;42.740;22.908;2023-06-26T02:32:18;19.35;;;13.88;;
45792;SDS011;31495;42.740;22.908;2023-06-26T02:33:18;18.92;;;14.32;;
45792;SDS011;31495;42.740;22.908;2023-06-26T02:34:17;18.33;;;13.45;;
45792;SDS011;31495;42.740;22.908;2023-06-26T02:35:17;19.42;;;14.05;;
45792;SDS011;31495;42.740;22.908;2023-06-26T02:36:16;20.00;;;14.50;;
45792;SDS011;31495;42.740;22.908;2023-06-26T02:37:16;21.67;;;14.25;;
45792;SDS011;31495;42.740;22.908;2023-06-26T02:38:16;18.70;;;13.82;;
45792;SDS011;31495;42.740;22.908;2023-06-26T02:39:15;16.92;;;13.18;;
45792;SDS011;31495;42.740;22.908;2023-06-26T02:40:15;20.40;;;13.35;;
45792;SDS011;31495;42.740;22.908;2023-06-26T02:41:15;19.15;;;13.23;;
45792;SDS011;31495;42.740;22.908;2023-06-26T02:42:14;19.70;;;13.23;;
45792;SDS011;31495;42.740;22.908;2023-06-26T02:43:13;17.52;;;11.95;;
45792;SDS011;31495;42.740;22.908;2023-06-26T02:44:13;13.98;;;9.90;;
45792;SDS011;31495;42.740;22.908;2023-06-26T02:45:13;16.27;;;11.52;;
45792;SDS011;31495;42.740;22.908;2023-06-26T02:46:12;17.52;;;12.40;;
45792;SDS011;31495;42.740;22.908;2023-06-26T02:47:12;19.92;;;11.85;;
45792;SDS011;31495;42.740;22.908;2023-06-26T02:48:11;15.30;;;11.63;;
45792;SDS011;31495;42.740;22.908;2023-06-26T02:49:11;16.95;;;12.10;;
45792;SDS011;31495;42.740;22.908;2023-06-26T02:50:10;13.60;;;10.77;;
45792;SDS011;31495;42.740;22.908;2023-06-26T02:51:10;16.27;;;12.02;;
45792;SDS011;31495;42.740;22.908;2023-06-26T02:52:09;15.80;;;11.88;;
45792;SDS011;31495;42.740;22.908;2023-06-26T02:53:09;18.80;;;13.43;;
45792;SDS011;31495;42.740;22.908;2023-06-26T02:54:08;19.38;;;12.50;;
45792;SDS011;31495;42.740;22.908;2023-06-26T02:55:08;18.35;;;12.80;;
45792;SDS011;31495;42.740;22.908;2023-06-26T02:56:07;21.70;;;12.93;;
45792;SDS011;31495;42.740;22.908;2023-06-26T02:57:07;16.17;;;13.10;;
45792;SDS011;31495;42.740;22.908;2023-06-26T02:58:06;17.17;;;13.00;;
45792;SDS011;31495;42.740;22.908;2023-06-26T02:59:05;18.30;;;13.93;;
45792;SDS011;31495;42.740;22.908;2023-06-26T03:00:05;17.63;;;12.60;;
45792;SDS011;31495;42.740;22.908;2023-06-26T03:01:07;19.52;;;13.52;;
45792;SDS011;31495;42.740;22.908;2023-06-26T03:02:06;18.70;;;13.35;;
45792;SDS011;31495;42.740;22.908;2023-06-26T03:03:06;18.25;;;13.57;;
45792;SDS011;31495;42.740;22.908;2023-06-26T03:04:06;19.80;;;13.88;;
45792;SDS011;31495;42.740;22.908;2023-06-26T03:05:06;24.73;;;14.48;;
45792;SDS011;31495;42.740;22.908;2023-06-26T03:06:06;21.48;;;14.40;;
45792;SDS011;31495;42.740;22.908;2023-06-26T03:07:06;16.88;;;13.00;;
45792;SDS011;31495;42.740;22.908;2023-06-26T03:08:06;20.40;;;14.00;;
45792;SDS011;31495;42.740;22.908;2023-06-26T03:09:06;19.60;;;14.10;;
45792;SDS011;31495;42.740;22.908;2023-06-26T03:10:05;21.50;;;14.52;;
45792;SDS011;31495;42.740;22.908;2023-06-26T03:11:05;21.67;;;14.45;;
45792;SDS011;31495;42.740;22.908;2023-06-26T03:12:05;22.38;;;14.30;;
45792;SDS011;31495;42.740;22.908;2023-06-26T03:13:05;18.35;;;14.50;;
45792;SDS011;31495;42.740;22.908;2023-06-26T03:14:05;20.70;;;15.10;;
45792;SDS011;31495;42.740;22.908;2023-06-26T03:15:05;18.13;;;12.70;;
45792;SDS011;31495;42.740;22.908;2023-06-26T03:16:06;19.73;;;14.02;;
45792;SDS011;31495;42.740;22.908;2023-06-26T03:17:05;22.35;;;13.60;;
45792;SDS011;31495;42.740;22.908;2023-06-26T03:18:06;20.17;;;14.18;;
45792;SDS011;31495;42.740;22.908;2023-06-26T03:19:05;21.48;;;14.27;;
45792;SDS011;31495;42.740;22.908;2023-06-26T03:20:05;17.45;;;14.15;;
45792;SDS011;31495;42.740;22.908;2023-06-26T03:21:09;25.83;;;15.27;;
45792;SDS011;31495;42.740;22.908;2023-06-26T03:22:09;19.95;;;14.20;;
45792;SDS011;31495;42.740;22.908;2023-06-26T03:23:09;18.80;;;14.40;;
45792;SDS011;31495;42.740;22.908;2023-06-26T03:24:08;19.15;;;13.68;;
45792;SDS011;31495;42.740;22.908;2023-06-26T03:25:08;20.90;;;14.48;;
45792;SDS011;31495;42.740;22.908;2023-06-26T03:26:07;21.35;;;14.35;;
45792;SDS011;31495;42.740;22.908;2023-06-26T03:27:07;21.30;;;14.20;;
45792;SDS011;31495;42.740;22.908;2023-06-26T03:28:08;18.75;;;13.15;;
45792;SDS011;31495;42.740;22.908;2023-06-26T03:29:08;19.85;;;14.43;;
45792;SDS011;31495;42.740;22.908;2023-06-26T03:30:07;17.90;;;13.27;;
45792;SDS011;31495;42.740;22.908;2023-06-26T03:31:07;19.63;;;14.63;;
45792;SDS011;31495;42.740;22.908;2023-06-26T03:32:07;18.73;;;14.25;;
45792;SDS011;31495;42.740;22.908;2023-06-26T03:33:07;16.08;;;12.90;;
45792;SDS011;31495;42.740;22.908;2023-06-26T03:34:06;20.83;;;13.68;;
45792;SDS011;31495;42.740;22.908;2023-06-26T03:35:05;19.17;;;14.48;;
45792;SDS011;31495;42.740;22.908;2023-06-26T03:36:05;16.48;;;12.10;;
45792;SDS011;31495;42.740;22.908;2023-06-26T03:37:05;21.38;;;13.57;;
45792;SDS011;31495;42.740;22.908;2023-06-26T03:38:04;18.67;;;12.68;;
45792;SDS011;31495;42.740;22.908;2023-06-26T03:39:04;16.35;;;12.60;;
45792;SDS011;31495;42.740;22.908;2023-06-26T03:40:03;21.67;;;13.90;;
45792;SDS011;31495;42.740;22.908;2023-06-26T03:41:03;19.92;;;14.55;;
45792;SDS011;31495;42.740;22.908;2023-06-26T03:42:03;21.63;;;15.07;;
45792;SDS011;31495;42.740;22.908;2023-06-26T03:43:03;19.92;;;14.35;;
45792;SDS011;31495;42.740;22.908;2023-06-26T03:44:03;18.40;;;13.80;;
45792;SDS011;31495;42.740;22.908;2023-06-26T03:45:03;17.30;;;12.93;;
45792;SDS011;31495;42.740;22.908;2023-06-26T03:46:03;18.77;;;14.50;;
45792;SDS011;31495;42.740;22.908;2023-06-26T03:47:02;21.30;;;14.27;;
45792;SDS011;31495;42.740;22.908;2023-06-26T03:48:02;18.15;;;13.20;;
45792;SDS011;31495;42.740;22.908;2023-06-26T03:49:02;18.58;;;13.90;;
45792;SDS011;31495;42.740;22.908;2023-06-26T03:50:02;18.20;;;13.70;;
45792;SDS011;31495;42.740;22.908;2023-06-26T03:51:01;19.83;;;13.57;;
45792;SDS011;31495;42.740;22.908;2023-06-26T03:52:01;19.42;;;13.27;;
45792;SDS011;31495;42.740;22.908;2023-06-26T03:53:00;15.75;;;12.25;;
45792;SDS011;31495;42.740;22.908;2023-06-26T03:54:00;21.40;;;12.30;;
45792;SDS011;31495;42.740;22.908;2023-06-26T03:54:59;19.95;;;12.38;;
45792;SDS011;31495;42.740;22.908;2023-06-26T03:56:00;20.55;;;13.73;;
45792;SDS011;31495;42.740;22.908;2023-06-26T03:56:59;16.48;;;12.52;;
45792;SDS011;31495;42.740;22.908;2023-06-26T03:57:58;15.48;;;12.48;;
45792;SDS011;31495;42.740;22.908;2023-06-26T03:58:58;20.30;;;13.50;;
45792;SDS011;31495;42.740;22.908;2023-06-26T03:59:57;14.85;;;12.02;;
45792;SDS011;31495;42.740;22.908;2023-06-26T04:00:57;16.27;;;12.35;;
45792;SDS011;31495;42.740;22.908;2023-06-26T04:01:57;14.48;;;12.55;;
45792;SDS011;31495;42.740;22.908;2023-06-26T04:02:57;16.38;;;12.27;;
45792;SDS011;31495;42.740;22.908;2023-06-26T04:03:57;16.80;;;12.43;;
45792;SDS011;31495;42.740;22.908;2023-06-26T04:04:56;18.40;;;12.02;;
45792;SDS011;31495;42.740;22.908;2023-06-26T04:05:55;17.58;;;12.63;;
45792;SDS011;31495;42.740;22.908;2023-06-26T04:06:55;17.55;;;12.38;;
45792;SDS011;31495;42.740;22.908;2023-06-26T04:07:54;16.23;;;12.23;;
45792;SDS011;31495;42.740;22.908;2023-06-26T04:08:53;15.68;;;12.15;;
45792;SDS011;31495;42.740;22.908;2023-06-26T04:09:53;17.83;;;12.35;;
45792;SDS011;31495;42.740;22.908;2023-06-26T04:10:52;16.25;;;12.05;;
45792;SDS011;31495;42.740;22.908;2023-06-26T04:11:53;14.87;;;11.17;;
45792;SDS011;31495;42.740;22.908;2023-06-26T04:12:52;14.68;;;11.73;;
45792;SDS011;31495;42.740;22.908;2023-06-26T04:13:52;20.00;;;12.68;;
45792;SDS011;31495;42.740;22.908;2023-06-26T04:14:51;16.02;;;11.65;;
45792;SDS011;31495;42.740;22.908;2023-06-26T04:15:51;14.93;;;11.27;;
45792;SDS011;31495;42.740;22.908;2023-06-26T04:16:50;17.88;;;11.43;;
45792;SDS011;31495;42.740;22.908;2023-06-26T04:17:50;16.23;;;12.07;;
45792;SDS011;31495;42.740;22.908;2023-06-26T04:18:49;16.00;;;12.00;;
45792;SDS011;31495;42.740;22.908;2023-06-26T04:19:49;20.00;;;12.32;;
45792;SDS011;31495;42.740;22.908;2023-06-26T04:21:07;14.35;;;12.30;;
45792;SDS011;31495;42.740;22.908;2023-06-26T04:22:08;16.13;;;11.70;;
45792;SDS011;31495;42.740;22.908;2023-06-26T04:23:07;16.63;;;12.45;;
45792;SDS011;31495;42.740;22.908;2023-06-26T04:24:07;17.55;;;12.63;;
45792;SDS011;31495;42.740;22.908;2023-06-26T04:25:06;16.05;;;11.73;;
45792;SDS011;31495;42.740;22.908;2023-06-26T04:26:06;14.80;;;12.32;;
45792;SDS011;31495;42.740;22.908;2023-06-26T04:27:06;17.38;;;11.52;;
45792;SDS011;31495;42.740;22.908;2023-06-26T04:28:06;16.83;;;12.93;;
45792;SDS011;31495;42.740;22.908;2023-06-26T04:29:05;14.95;;;11.40;;
45792;SDS011;31495;42.740;22.908;2023-06-26T04:30:04;17.60;;;12.13;;
45792;SDS011;31495;42.740;22.908;2023-06-26T04:31:04;16.30;;;11.70;;
45792;SDS011;31495;42.740;22.908;2023-06-26T04:32:04;15.70;;;11.88;;
45792;SDS011;31495;42.740;22.908;2023-06-26T04:33:04;15.15;;;11.40;;
45792;SDS011;31495;42.740;22.908;2023-06-26T04:34:04;17.35;;;11.27;;
45792;SDS011;31495;42.740;22.908;2023-06-26T04:35:04;17.88;;;12.00;;
45792;SDS011;31495;42.740;22.908;2023-06-26T04:36:04;17.52;;;12.10;;
45792;SDS011;31495;42.740;22.908;2023-06-26T04:37:03;16.25;;;11.98;;
45792;SDS011;31495;42.740;22.908;2023-06-26T04:38:03;16.60;;;10.93;;
45792;SDS011;31495;42.740;22.908;2023-06-26T04:39:04;14.25;;;11.07;;
45792;SDS011;31495;42.740;22.908;2023-06-26T04:40:03;15.50;;;11.52;;
45792;SDS011;31495;42.740;22.908;2023-06-26T04:41:04;15.63;;;11.68;;
45792;SDS011;31495;42.740;22.908;2023-06-26T04:42:04;14.40;;;11.00;;
45792;SDS011;31495;42.740;22.908;2023-06-26T04:43:05;14.75;;;11.75;;
45792;SDS011;31495;42.740;22.908;2023-06-26T04:44:05;13.98;;;11.38;;
45792;SDS011;31495;42.740;22.908;2023-06-26T04:45:04;14.63;;;10.77;;
45792;SDS011;31495;42.740;22.908;2023-06-26T04:46:04;13.75;;;10.65;;
45792;SDS011;31495;42.740;22.908;2023-06-26T04:47:05;17.17;;;10.70;;
45792;SDS011;31495;42.740;22.908;2023-06-26T04:48:04;13.88;;;10.93;;
45792;SDS011;31495;42.740;22.908;2023-06-26T04:49:05;15.70;;;11.30;;
45792;SDS011;31495;42.740;22.908;2023-06-26T04:50:04;17.55;;;10.77;;
45792;SDS011;31495;42.740;22.908;2023-06-26T04:51:04;17.40;;;12.30;;
45792;SDS011;31495;42.740;22.908;2023-06-26T04:52:04;19.65;;;11.52;;
45792;SDS011;31495;42.740;22.908;2023-06-26T04:53:04;15.00;;;11.15;;
45792;SDS011;31495;42.740;22.908;2023-06-26T04:54:03;14.80;;;10.68;;
45792;SDS011;31495;42.740;22.908;2023-06-26T04:55:02;16.70;;;11.50;;
45792;SDS011;31495;42.740;22.908;2023-06-26T04:56:02;15.18;;;11.30;;
45792;SDS011;31495;42.740;22.908;2023-06-26T04:57:02;16.15;;;11.60;;
45792;SDS011;31495;42.740;22.908;2023-06-26T04:58:02;16.65;;;12.48;;
45792;SDS011;31495;42.740;22.908;2023-06-26T04:59:01;14.40;;;11.38;;
45792;SDS011;31495;42.740;22.908;2023-06-26T05:00:02;12.75;;;10.23;;
45792;SDS011;31495;42.740;22.908;2023-06-26T05:01:05;14.27;;;11.35;;
45792;SDS011;31495;42.740;22.908;2023-06-26T05:02:06;11.90;;;9.70;;
45792;SDS011;31495;42.740;22.908;2023-06-26T05:03:05;16.75;;;11.48;;
45792;SDS011;31495;42.740;22.908;2023-06-26T05:04:05;14.20;;;9.85;;
45792;SDS011;31495;42.740;22.908;2023-06-26T05:05:05;16.48;;;9.57;;
45792;SDS011;31495;42.740;22.908;2023-06-26T05:06:05;15.00;;;10.50;;
45792;SDS011;31495;42.740;22.908;2023-06-26T05:07:04;12.77;;;10.10;;
45792;SDS011;31495;42.740;22.908;2023-06-26T05:08:17;15.18;;;9.75;;
45792;SDS011;31495;42.740;22.908;2023-06-26T05:09:20;12.10;;;9.20;;
45792;SDS011;31495;42.740;22.908;2023-06-26T05:10:19;13.88;;;9.88;;
45792;SDS011;31495;42.740;22.908;2023-06-26T05:11:19;12.77;;;8.98;;
45792;SDS011;31495;42.740;22.908;2023-06-26T05:12:18;13.48;;;10.70;;
45792;SDS011;31495;42.740;22.908;2023-06-26T05:13:18;11.68;;;9.60;;
45792;SDS011;31495;42.740;22.908;2023-06-26T05:14:18;12.15;;;9.65;;
45792;SDS011;31495;42.740;22.908;2023-06-26T05:15:18;12.85;;;9.52;;
45792;SDS011;31495;42.740;22.908;2023-06-26T05:16:17;13.60;;;10.50;;
45792;SDS011;31495;42.740;22.908;2023-06-26T05:17:17;13.70;;;8.70;;
45792;SDS011;31495;42.740;22.908;2023-06-26T05:18:16;12.20;;;10.23;;
45792;SDS011;31495;42.740;22.908;2023-06-26T05:19:16;14.63;;;10.77;;
45792;SDS011;31495;42.740;22.908;2023-06-26T05:20:15;13.45;;;9.75;;
45792;SDS011;31495;42.740;22.908;2023-06-26T05:21:15;12.25;;;9.90;;
45792;SDS011;31495;42.740;22.908;2023-06-26T05:22:15;13.43;;;10.52;;
45792;SDS011;31495;42.740;22.908;2023-06-26T05:23:16;14.23;;;9.82;;
45792;SDS011;31495;42.740;22.908;2023-06-26T05:24:16;12.50;;;10.35;;
45792;SDS011;31495;42.740;22.908;2023-06-26T05:25:16;14.13;;;9.70;;
45792;SDS011;31495;42.740;22.908;2023-06-26T05:26:18;13.55;;;9.80;;
45792;SDS011;31495;42.740;22.908;2023-06-26T05:27:17;14.85;;;9.20;;
45792;SDS011;31495;42.740;22.908;2023-06-26T05:28:20;15.93;;;10.65;;
45792;SDS011;31495;42.740;22.908;2023-06-26T05:29:21;11.98;;;9.18;;
45792;SDS011;31495;42.740;22.908;2023-06-26T05:30:21;11.90;;;8.98;;
45792;SDS011;31495;42.740;22.908;2023-06-26T05:31:21;15.60;;;9.32;;
45792;SDS011;31495;42.740;22.908;2023-06-26T05:32:21;13.15;;;9.15;;
45792;SDS011;31495;42.740;22.908;2023-06-26T05:33:21;13.38;;;9.40;;
45792;SDS011;31495;42.740;22.908;2023-06-26T05:34:23;17.77;;;11.48;;
45792;SDS011;31495;42.740;22.908;2023-06-26T05:35:24;14.50;;;10.77;;
45792;SDS011;31495;42.740;22.908;2023-06-26T05:36:27;13.07;;;9.27;;
45792;SDS011;31495;42.740;22.908;2023-06-26T05:37:28;11.23;;;9.52;;
45792;SDS011;31495;42.740;22.908;2023-06-26T05:38:28;13.82;;;9.75;;
45792;SDS011;31495;42.740;22.908;2023-06-26T05:39:28;19.23;;;9.50;;
45792;SDS011;31495;42.740;22.908;2023-06-26T05:40:28;12.05;;;8.68;;
45792;SDS011;31495;42.740;22.908;2023-06-26T05:41:28;11.65;;;9.10;;
45792;SDS011;31495;42.740;22.908;2023-06-26T05:42:28;10.85;;;8.07;;
45792;SDS011;31495;42.740;22.908;2023-06-26T05:43:28;11.57;;;8.57;;
45792;SDS011;31495;42.740;22.908;2023-06-26T05:44:27;14.05;;;10.18;;
45792;SDS011;31495;42.740;22.908;2023-06-26T05:45:27;12.65;;;10.30;;
45792;SDS011;31495;42.740;22.908;2023-06-26T05:46:26;12.52;;;9.05;;
45792;SDS011;31495;42.740;22.908;2023-06-26T05:47:26;11.68;;;8.88;;
45792;SDS011;31495;42.740;22.908;2023-06-26T05:48:25;12.20;;;8.48;;
45792;SDS011;31495;42.740;22.908;2023-06-26T05:49:25;11.98;;;8.73;;
45792;SDS011;31495;42.740;22.908;2023-06-26T05:50:25;15.82;;;9.07;;
45792;SDS011;31495;42.740;22.908;2023-06-26T05:51:25;11.55;;;8.43;;
45792;SDS011;31495;42.740;22.908;2023-06-26T05:52:25;13.68;;;8.18;;
45792;SDS011;31495;42.740;22.908;2023-06-26T05:53:25;11.35;;;8.82;;
45792;SDS011;31495;42.740;22.908;2023-06-26T05:54:25;12.45;;;8.50;;